sensor_id;sensor_type;location;lat;lon;timestamp;temperature;humidity
59893;DHT22;45758;51.052;3.740;2022-09-30T00:00:29;9.50;99.90
59893;DHT22;45758;51.052;3.740;2022-09-30T00:02:55;9.50;99.90
59893;DHT22;45758;51.052;3.740;2022-09-30T00:05:21;9.40;99.90
59893;DHT22;45758;51.052;3.740;2022-09-30T00:07:47;9.40;99.90
59893;DHT22;45758;51.052;3.740;2022-09-30T00:10:13;9.40;99.90
59893;DHT22;45758;51.052;3.740;2022-09-30T00:12:44;9.40;99.90
59893;DHT22;45758;51.052;3.740;2022-09-30T00:15:11;9.40;99.90
59893;DHT22;45758;51.052;3.740;2022-09-30T00:17:37;9.40;99.90
59893;DHT22;45758;51.052;3.740;2022-09-30T00:20:03;9.40;99.90
59893;DHT22;45758;51.052;3.740;2022-09-30T00:22:30;9.50;99.90
59893;DHT22;45758;51.052;3.740;2022-09-30T00:24:56;9.50;99.90
59893;DHT22;45758;51.052;3.740;2022-09-30T00:27:25;9.50;99.90
59893;DHT22;45758;51.052;3.740;2022-09-30T00:29:51;9.50;99.90
59893;DHT22;45758;51.052;3.740;2022-09-30T00:32:17;9.40;99.90
59893;DHT22;45758;51.052;3.740;2022-09-30T00:34:42;9.50;99.90
59893;DHT22;45758;51.052;3.740;2022-09-30T00:37:09;9.40;99.90
59893;DHT22;45758;51.052;3.740;2022-09-30T00:39:36;9.40;99.90
59893;DHT22;45758;51.052;3.740;2022-09-30T00:42:03;9.50;99.90
59893;DHT22;45758;51.052;3.740;2022-09-30T00:44:47;9.50;99.90
59893;DHT22;45758;51.052;3.740;2022-09-30T00:47:52;9.50;99.90
59893;DHT22;45758;51.052;3.740;2022-09-30T00:50:38;9.50;99.90
59893;DHT22;45758;51.052;3.740;2022-09-30T00:55:57;9.40;99.90
59893;DHT22;45758;51.052;3.740;2022-09-30T00:58:33;9.40;99.90
59893;DHT22;45758;51.052;3.740;2022-09-30T01:01:00;9.30;99.90
59893;DHT22;45758;51.052;3.740;2022-09-30T01:03:33;9.30;99.90
59893;DHT22;45758;51.052;3.740;2022-09-30T01:05:59;9.30;99.90
59893;DHT22;45758;51.052;3.740;2022-09-30T01:08:27;9.20;99.90
59893;DHT22;45758;51.052;3.740;2022-09-30T01:10:53;9.20;99.90
59893;DHT22;45758;51.052;3.740;2022-09-30T01:13:20;9.20;99.90
59893;DHT22;45758;51.052;3.740;2022-09-30T01:25:06;9.40;99.90
59893;DHT22;45758;51.052;3.740;2022-09-30T01:27:52;9.40;99.90
59893;DHT22;45758;51.052;3.740;2022-09-30T01:31:03;9.40;99.90
59893;DHT22;45758;51.052;3.740;2022-09-30T01:39:28;9.40;99.90
59893;DHT22;45758;51.052;3.740;2022-09-30T01:45:07;9.50;99.90
59893;DHT22;45758;51.052;3.740;2022-09-30T01:50:27;9.40;99.90
59893;DHT22;45758;51.052;3.740;2022-09-30T01:52:57;9.40;99.90
59893;DHT22;45758;51.052;3.740;2022-09-30T01:55:49;9.40;99.90
59893;DHT22;45758;51.052;3.740;2022-09-30T01:58:38;9.40;99.90
59893;DHT22;45758;51.052;3.740;2022-09-30T02:01:12;9.50;99.90
59893;DHT22;45758;51.052;3.740;2022-09-30T02:03:47;9.40;99.90
59893;DHT22;45758;51.052;3.740;2022-09-30T02:06:23;9.40;99.90
59893;DHT22;45758;51.052;3.740;2022-09-30T02:08:55;9.40;99.90
59893;DHT22;45758;51.052;3.740;2022-09-30T02:11:26;9.30;99.90
59893;DHT22;45758;51.052;3.740;2022-09-30T02:16:30;9.30;99.90
59893;DHT22;45758;51.052;3.740;2022-09-30T02:21:55;9.20;99.90
59893;DHT22;45758;51.052;3.740;2022-09-30T02:24:26;9.20;99.90
59893;DHT22;45758;51.052;3.740;2022-09-30T02:26:54;9.20;99.90
59893;DHT22;45758;51.052;3.740;2022-09-30T02:29:34;9.20;99.90
59893;DHT22;45758;51.052;3.740;2022-09-30T02:32:08;9.20;99.90
59893;DHT22;45758;51.052;3.740;2022-09-30T02:34:41;9.20;99.90
59893;DHT22;45758;51.052;3.740;2022-09-30T02:37:26;9.20;99.90
59893;DHT22;45758;51.052;3.740;2022-09-30T02:40:12;9.20;99.90
59893;DHT22;45758;51.052;3.740;2022-09-30T02:42:39;9.20;99.90
59893;DHT22;45758;51.052;3.740;2022-09-30T02:45:09;9.20;99.90
59893;DHT22;45758;51.052;3.740;2022-09-30T02:48:08;9.20;99.90
59893;DHT22;45758;51.052;3.740;2022-09-30T02:50:48;9.20;99.90
59893;DHT22;45758;51.052;3.740;2022-09-30T02:58:32;9.10;99.90
59893;DHT22;45758;51.052;3.740;2022-09-30T03:01:00;9.10;99.90
59893;DHT22;45758;51.052;3.740;2022-09-30T03:03:34;9.10;99.90
59893;DHT22;45758;51.052;3.740;2022-09-30T03:06:03;9.10;99.90
59893;DHT22;45758;51.052;3.740;2022-09-30T03:08:31;9.20;99.90
59893;DHT22;45758;51.052;3.740;2022-09-30T03:10:57;9.20;99.90
59893;DHT22;45758;51.052;3.740;2022-09-30T03:13:58;9.20;99.90
59893;DHT22;45758;51.052;3.740;2022-09-30T03:22:31;9.20;99.90
59893;DHT22;45758;51.052;3.740;2022-09-30T03:28:19;9.10;99.90
59893;DHT22;45758;51.052;3.740;2022-09-30T03:33:46;9.00;99.90
59893;DHT22;45758;51.052;3.740;2022-09-30T03:36:39;9.00;99.90
59893;DHT22;45758;51.052;3.740;2022-09-30T03:41:58;9.00;99.90
59893;DHT22;45758;51.052;3.740;2022-09-30T03:44:36;9.00;99.90
59893;DHT22;45758;51.052;3.740;2022-09-30T03:47:08;8.90;99.90
59893;DHT22;45758;51.052;3.740;2022-09-30T03:49:53;9.00;99.90
59893;DHT22;45758;51.052;3.740;2022-09-30T03:52:22;9.00;99.90
59893;DHT22;45758;51.052;3.740;2022-09-30T03:57:17;9.00;99.90
59893;DHT22;45758;51.052;3.740;2022-09-30T03:59:43;9.00;99.90
59893;DHT22;45758;51.052;3.740;2022-09-30T04:02:09;8.90;99.90
59893;DHT22;45758;51.052;3.740;2022-09-30T04:04:38;9.00;99.90
59893;DHT22;45758;51.052;3.740;2022-09-30T04:07:05;8.90;99.90
59893;DHT22;45758;51.052;3.740;2022-09-30T04:09:31;8.90;99.90
59893;DHT22;45758;51.052;3.740;2022-09-30T04:11:57;8.90;99.90
59893;DHT22;45758;51.052;3.740;2022-09-30T04:14:26;8.90;99.90
59893;DHT22;45758;51.052;3.740;2022-09-30T04:16:52;8.80;99.90
59893;DHT22;45758;51.052;3.740;2022-09-30T04:19:18;8.80;99.90
59893;DHT22;45758;51.052;3.740;2022-09-30T04:21:43;8.90;99.90
59893;DHT22;45758;51.052;3.740;2022-09-30T04:24:09;8.80;99.90
59893;DHT22;45758;51.052;3.740;2022-09-30T04:26:35;8.90;99.90
59893;DHT22;45758;51.052;3.740;2022-09-30T04:29:01;8.90;99.90
59893;DHT22;45758;51.052;3.740;2022-09-30T04:31:27;8.90;99.90
59893;DHT22;45758;51.052;3.740;2022-09-30T04:33:54;8.90;99.90
59893;DHT22;45758;51.052;3.740;2022-09-30T04:36:21;8.90;99.90
59893;DHT22;45758;51.052;3.740;2022-09-30T04:38:47;8.90;99.90
59893;DHT22;45758;51.052;3.740;2022-09-30T04:41:15;8.90;99.90
59893;DHT22;45758;51.052;3.740;2022-09-30T04:43:44;9.00;99.90
59893;DHT22;45758;51.052;3.740;2022-09-30T04:46:12;8.80;99.90
59893;DHT22;45758;51.052;3.740;2022-09-30T04:48:40;8.90;99.90
59893;DHT22;45758;51.052;3.740;2022-09-30T04:51:11;8.80;99.90
59893;DHT22;45758;51.052;3.740;2022-09-30T04:53:38;8.90;99.90
59893;DHT22;45758;51.052;3.740;2022-09-30T04:56:04;8.90;99.90
59893;DHT22;45758;51.052;3.740;2022-09-30T04:58:33;9.00;99.90
59893;DHT22;45758;51.052;3.740;2022-09-30T05:01:04;9.00;99.90
59893;DHT22;45758;51.052;3.740;2022-09-30T05:03:33;9.00;99.90
59893;DHT22;45758;51.052;3.740;2022-09-30T05:05:59;9.00;99.90
59893;DHT22;45758;51.052;3.740;2022-09-30T05:08:25;9.00;99.90
59893;DHT22;45758;51.052;3.740;2022-09-30T05:10:57;9.00;99.90
59893;DHT22;45758;51.052;3.740;2022-09-30T05:13:24;9.00;99.90
59893;DHT22;45758;51.052;3.740;2022-09-30T05:15:51;9.00;99.90
59893;DHT22;45758;51.052;3.740;2022-09-30T05:18:19;9.00;99.90
59893;DHT22;45758;51.052;3.740;2022-09-30T05:20:48;8.90;99.90
59893;DHT22;45758;51.052;3.740;2022-09-30T05:23:23;8.90;99.90
59893;DHT22;45758;51.052;3.740;2022-09-30T05:25:51;8.80;99.90
59893;DHT22;45758;51.052;3.740;2022-09-30T05:28:17;8.80;99.90
59893;DHT22;45758;51.052;3.740;2022-09-30T05:30:44;8.80;99.90
59893;DHT22;45758;51.052;3.740;2022-09-30T05:33:12;8.80;99.90
59893;DHT22;45758;51.052;3.740;2022-09-30T05:35:42;8.90;99.90
59893;DHT22;45758;51.052;3.740;2022-09-30T05:38:08;8.90;99.90
59893;DHT22;45758;51.052;3.740;2022-09-30T05:40:39;9.00;99.90
59893;DHT22;45758;51.052;3.740;2022-09-30T05:43:05;9.10;99.90
59893;DHT22;45758;51.052;3.740;2022-09-30T05:45:32;9.20;99.90
59893;DHT22;45758;51.052;3.740;2022-09-30T05:47:59;9.20;99.90
59893;DHT22;45758;51.052;3.740;2022-09-30T05:50:25;9.20;99.90
59893;DHT22;45758;51.052;3.740;2022-09-30T05:52:54;9.20;99.90
59893;DHT22;45758;51.052;3.740;2022-09-30T05:55:22;9.20;99.90
59893;DHT22;45758;51.052;3.740;2022-09-30T05:57:49;9.20;99.90
59893;DHT22;45758;51.052;3.740;2022-09-30T06:00:17;9.30;99.90
59893;DHT22;45758;51.052;3.740;2022-09-30T06:03:10;9.20;99.90
59893;DHT22;45758;51.052;3.740;2022-09-30T06:05:41;9.20;99.90
59893;DHT22;45758;51.052;3.740;2022-09-30T06:08:44;9.20;99.90
59893;DHT22;45758;51.052;3.740;2022-09-30T06:11:20;9.10;99.90
59893;DHT22;45758;51.052;3.740;2022-09-30T06:14:23;9.00;99.90
59893;DHT22;45758;51.052;3.740;2022-09-30T06:20:06;9.10;99.90
59893;DHT22;45758;51.052;3.740;2022-09-30T06:23:03;9.20;99.90
59893;DHT22;45758;51.052;3.740;2022-09-30T06:25:32;9.30;99.90
59893;DHT22;45758;51.052;3.740;2022-09-30T06:28:03;9.20;99.90
59893;DHT22;45758;51.052;3.740;2022-09-30T06:30:32;9.20;99.90
59893;DHT22;45758;51.052;3.740;2022-09-30T06:33:15;9.20;99.90
59893;DHT22;45758;51.052;3.740;2022-09-30T06:35:51;9.20;99.90
59893;DHT22;45758;51.052;3.740;2022-09-30T06:38:17;9.10;99.90
59893;DHT22;45758;51.052;3.740;2022-09-30T06:40:45;9.20;99.90
59893;DHT22;45758;51.052;3.740;2022-09-30T06:43:17;9.30;99.90
59893;DHT22;45758;51.052;3.740;2022-09-30T06:45:46;9.30;99.90
59893;DHT22;45758;51.052;3.740;2022-09-30T06:48:15;9.40;99.90
59893;DHT22;45758;51.052;3.740;2022-09-30T06:50:44;9.40;99.90
59893;DHT22;45758;51.052;3.740;2022-09-30T06:53:11;9.40;99.90
59893;DHT22;45758;51.052;3.740;2022-09-30T06:55:38;9.40;99.90
59893;DHT22;45758;51.052;3.740;2022-09-30T06:58:13;9.50;99.90
59893;DHT22;45758;51.052;3.740;2022-09-30T07:00:39;9.60;99.90
59893;DHT22;45758;51.052;3.740;2022-09-30T07:03:21;9.50;99.90
59893;DHT22;45758;51.052;3.740;2022-09-30T07:05:54;9.70;99.90
59893;DHT22;45758;51.052;3.740;2022-09-30T07:08:22;9.60;99.90
59893;DHT22;45758;51.052;3.740;2022-09-30T07:10:51;9.70;99.90
59893;DHT22;45758;51.052;3.740;2022-09-30T07:13:20;9.80;99.90
59893;DHT22;45758;51.052;3.740;2022-09-30T07:15:46;10.00;99.90
59893;DHT22;45758;51.052;3.740;2022-09-30T07:18:14;10.20;99.90
59893;DHT22;45758;51.052;3.740;2022-09-30T07:20:51;10.40;99.90
59893;DHT22;45758;51.052;3.740;2022-09-30T07:23:18;10.60;99.90
59893;DHT22;45758;51.052;3.740;2022-09-30T07:25:56;10.80;99.90
59893;DHT22;45758;51.052;3.740;2022-09-30T07:28:35;11.10;99.90
59893;DHT22;45758;51.052;3.740;2022-09-30T07:31:12;11.40;99.90
59893;DHT22;45758;51.052;3.740;2022-09-30T07:33:46;11.60;99.90
59893;DHT22;45758;51.052;3.740;2022-09-30T07:36:17;11.90;99.90
59893;DHT22;45758;51.052;3.740;2022-09-30T07:38:45;12.20;99.90
59893;DHT22;45758;51.052;3.740;2022-09-30T07:41:21;12.40;99.90
59893;DHT22;45758;51.052;3.740;2022-09-30T07:43:50;12.60;99.90
59893;DHT22;45758;51.052;3.740;2022-09-30T07:46:21;12.90;99.90
59893;DHT22;45758;51.052;3.740;2022-09-30T07:48:50;13.00;99.90
59893;DHT22;45758;51.052;3.740;2022-09-30T07:53:54;13.40;99.90
59893;DHT22;45758;51.052;3.740;2022-09-30T07:56:21;13.50;99.90
59893;DHT22;45758;51.052;3.740;2022-09-30T07:58:48;13.60;99.90
59893;DHT22;45758;51.052;3.740;2022-09-30T08:01:16;13.70;99.90
59893;DHT22;45758;51.052;3.740;2022-09-30T08:03:43;13.90;99.90
59893;DHT22;45758;51.052;3.740;2022-09-30T08:06:14;14.10;99.90
59893;DHT22;45758;51.052;3.740;2022-09-30T08:08:41;14.20;99.90
59893;DHT22;45758;51.052;3.740;2022-09-30T08:11:08;14.40;99.90
59893;DHT22;45758;51.052;3.740;2022-09-30T08:13:38;14.60;99.90
59893;DHT22;45758;51.052;3.740;2022-09-30T08:16:04;14.70;99.90
59893;DHT22;45758;51.052;3.740;2022-09-30T08:18:31;14.90;99.90
59893;DHT22;45758;51.052;3.740;2022-09-30T08:21:10;15.10;99.90
59893;DHT22;45758;51.052;3.740;2022-09-30T08:23:36;15.30;99.90
59893;DHT22;45758;51.052;3.740;2022-09-30T08:26:08;15.30;99.90
59893;DHT22;45758;51.052;3.740;2022-09-30T08:28:38;15.50;99.90
59893;DHT22;45758;51.052;3.740;2022-09-30T08:31:11;15.60;99.90
59893;DHT22;45758;51.052;3.740;2022-09-30T08:33:42;15.80;99.90
59893;DHT22;45758;51.052;3.740;2022-09-30T08:36:15;15.90;99.90
59893;DHT22;45758;51.052;3.740;2022-09-30T08:38:41;16.10;99.90
59893;DHT22;45758;51.052;3.740;2022-09-30T08:41:40;16.20;99.90
59893;DHT22;45758;51.052;3.740;2022-09-30T08:50:33;16.60;99.90
59893;DHT22;45758;51.052;3.740;2022-09-30T08:52:44;16.70;99.90
59893;DHT22;45758;51.052;3.740;2022-09-30T08:55:20;16.70;99.90
59893;DHT22;45758;51.052;3.740;2022-09-30T08:57:50;16.80;99.90
59893;DHT22;45758;51.052;3.740;2022-09-30T09:00:17;16.90;99.90
59893;DHT22;45758;51.052;3.740;2022-09-30T09:02:53;17.10;99.90
59893;DHT22;45758;51.052;3.740;2022-09-30T09:05:27;17.30;99.90
59893;DHT22;45758;51.052;3.740;2022-09-30T09:15:35;17.60;99.90
59893;DHT22;45758;51.052;3.740;2022-09-30T09:18:32;17.70;99.90
59893;DHT22;45758;51.052;3.740;2022-09-30T09:23:32;17.90;99.90
59893;DHT22;45758;51.052;3.740;2022-09-30T09:26:03;18.00;99.90
59893;DHT22;45758;51.052;3.740;2022-09-30T09:28:50;18.10;99.90
59893;DHT22;45758;51.052;3.740;2022-09-30T09:31:21;18.20;99.90
59893;DHT22;45758;51.052;3.740;2022-09-30T09:33:47;18.30;99.90
59893;DHT22;45758;51.052;3.740;2022-09-30T09:39:21;18.60;99.90
59893;DHT22;45758;51.052;3.740;2022-09-30T09:47:30;18.50;99.90
59893;DHT22;45758;51.052;3.740;2022-09-30T09:50:12;18.80;99.90
59893;DHT22;45758;51.052;3.740;2022-09-30T09:53:08;18.90;99.90
59893;DHT22;45758;51.052;3.740;2022-09-30T09:55:37;19.10;99.90
59893;DHT22;45758;51.052;3.740;2022-09-30T09:58:08;19.30;99.90
59893;DHT22;45758;51.052;3.740;2022-09-30T10:00:37;19.30;99.90
59893;DHT22;45758;51.052;3.740;2022-09-30T10:03:17;19.30;99.90
59893;DHT22;45758;51.052;3.740;2022-09-30T10:08:27;19.40;99.90
59893;DHT22;45758;51.052;3.740;2022-09-30T10:11:02;19.40;99.90
59893;DHT22;45758;51.052;3.740;2022-09-30T10:13:31;19.40;99.90
59893;DHT22;45758;51.052;3.740;2022-09-30T10:16:01;19.50;99.90
59893;DHT22;45758;51.052;3.740;2022-09-30T10:18:32;19.70;99.90
59893;DHT22;45758;51.052;3.740;2022-09-30T10:21:29;19.80;99.90
59893;DHT22;45758;51.052;3.740;2022-09-30T10:23:55;19.80;99.90
59893;DHT22;45758;51.052;3.740;2022-09-30T10:26:26;19.80;99.90
59893;DHT22;45758;51.052;3.740;2022-09-30T10:28:56;19.90;99.90
59893;DHT22;45758;51.052;3.740;2022-09-30T10:31:24;20.00;99.90
59893;DHT22;45758;51.052;3.740;2022-09-30T10:36:40;19.80;99.90
59893;DHT22;45758;51.052;3.740;2022-09-30T10:39:31;19.80;99.90
59893;DHT22;45758;51.052;3.740;2022-09-30T10:45:02;19.90;99.90
59893;DHT22;45758;51.052;3.740;2022-09-30T10:47:31;19.90;99.90
59893;DHT22;45758;51.052;3.740;2022-09-30T10:50:12;19.90;99.90
59893;DHT22;45758;51.052;3.740;2022-09-30T10:52:46;20.00;99.90
59893;DHT22;45758;51.052;3.740;2022-09-30T10:57:45;20.00;99.90
59893;DHT22;45758;51.052;3.740;2022-09-30T11:00:20;20.00;99.90
59893;DHT22;45758;51.052;3.740;2022-09-30T11:02:56;20.00;99.90
59893;DHT22;45758;51.052;3.740;2022-09-30T11:05:41;20.10;99.90
59893;DHT22;45758;51.052;3.740;2022-09-30T11:08:24;20.30;99.90
59893;DHT22;45758;51.052;3.740;2022-09-30T11:11:05;20.40;99.90
59893;DHT22;45758;51.052;3.740;2022-09-30T11:19:20;20.30;99.90
59893;DHT22;45758;51.052;3.740;2022-09-30T11:21:55;20.30;99.90
59893;DHT22;45758;51.052;3.740;2022-09-30T11:24:35;20.50;99.90
59893;DHT22;45758;51.052;3.740;2022-09-30T11:27:43;20.40;99.90
59893;DHT22;45758;51.052;3.740;2022-09-30T11:33:52;20.00;99.90
59893;DHT22;45758;51.052;3.740;2022-09-30T11:44:54;20.00;99.90
59893;DHT22;45758;51.052;3.740;2022-09-30T11:56:01;19.60;99.90
59893;DHT22;45758;51.052;3.740;2022-09-30T11:58:35;19.80;99.90
59893;DHT22;45758;51.052;3.740;2022-09-30T12:01:17;19.70;99.90
59893;DHT22;45758;51.052;3.740;2022-09-30T12:06:28;19.90;99.90
59893;DHT22;45758;51.052;3.740;2022-09-30T12:09:19;19.90;99.90
59893;DHT22;45758;51.052;3.740;2022-09-30T12:12:03;19.70;99.90
59893;DHT22;45758;51.052;3.740;2022-09-30T12:17:36;19.90;99.90
59893;DHT22;45758;51.052;3.740;2022-09-30T12:22:48;20.00;99.90
59893;DHT22;45758;51.052;3.740;2022-09-30T12:25:24;20.10;99.90
59893;DHT22;45758;51.052;3.740;2022-09-30T12:28:29;20.10;99.90
59893;DHT22;45758;51.052;3.740;2022-09-30T12:40:00;20.00;99.90
59893;DHT22;45758;51.052;3.740;2022-09-30T12:42:56;20.10;99.90
59893;DHT22;45758;51.052;3.740;2022-09-30T12:48:14;20.30;99.90
59893;DHT22;45758;51.052;3.740;2022-09-30T12:50:51;20.30;99.90
59893;DHT22;45758;51.052;3.740;2022-09-30T12:53:35;20.30;99.90
59893;DHT22;45758;51.052;3.740;2022-09-30T12:56:07;20.30;99.90
59893;DHT22;45758;51.052;3.740;2022-09-30T12:58:41;20.30;99.90
59893;DHT22;45758;51.052;3.740;2022-09-30T13:01:14;20.30;99.90
59893;DHT22;45758;51.052;3.740;2022-09-30T13:06:25;20.20;99.90
59893;DHT22;45758;51.052;3.740;2022-09-30T13:11:41;20.20;99.90
59893;DHT22;45758;51.052;3.740;2022-09-30T13:19:35;20.30;99.90
59893;DHT22;45758;51.052;3.740;2022-09-30T13:27:37;20.50;99.90
59893;DHT22;45758;51.052;3.740;2022-09-30T13:32:41;20.30;99.90
59893;DHT22;45758;51.052;3.740;2022-09-30T13:43:56;20.30;97.90
59893;DHT22;45758;51.052;3.740;2022-09-30T13:46:40;20.20;97.50
59893;DHT22;45758;51.052;3.740;2022-09-30T13:49:37;20.10;97.60
59893;DHT22;45758;51.052;3.740;2022-09-30T13:52:24;20.00;98.00
59893;DHT22;45758;51.052;3.740;2022-09-30T13:54:53;20.00;98.00
59893;DHT22;45758;51.052;3.740;2022-09-30T13:57:39;19.90;98.40
59893;DHT22;45758;51.052;3.740;2022-09-30T14:00:15;19.80;98.20
59893;DHT22;45758;51.052;3.740;2022-09-30T14:03:05;19.70;98.50
59893;DHT22;45758;51.052;3.740;2022-09-30T14:05:48;19.70;98.30
59893;DHT22;45758;51.052;3.740;2022-09-30T14:08:53;19.80;97.80
59893;DHT22;45758;51.052;3.740;2022-09-30T14:14:10;19.70;97.40
59893;DHT22;45758;51.052;3.740;2022-09-30T14:17:09;19.60;97.60
59893;DHT22;45758;51.052;3.740;2022-09-30T14:22:36;19.30;98.20
59893;DHT22;45758;51.052;3.740;2022-09-30T14:25:03;19.20;97.10
59893;DHT22;45758;51.052;3.740;2022-09-30T14:30:19;19.30;97.70
59893;DHT22;45758;51.052;3.740;2022-09-30T14:32:45;19.40;98.10
59893;DHT22;45758;51.052;3.740;2022-09-30T14:35:19;19.30;98.00
59893;DHT22;45758;51.052;3.740;2022-09-30T14:37:49;19.20;98.70
59893;DHT22;45758;51.052;3.740;2022-09-30T14:40:19;19.20;98.60
59893;DHT22;45758;51.052;3.740;2022-09-30T14:42:47;19.20;98.20
59893;DHT22;45758;51.052;3.740;2022-09-30T14:45:36;19.20;98.50
59893;DHT22;45758;51.052;3.740;2022-09-30T14:48:18;18.90;98.50
59893;DHT22;45758;51.052;3.740;2022-09-30T14:51:02;18.90;98.60
59893;DHT22;45758;51.052;3.740;2022-09-30T14:53:40;18.80;98.90
59893;DHT22;45758;51.052;3.740;2022-09-30T14:58:48;18.70;99.00
59893;DHT22;45758;51.052;3.740;2022-09-30T15:01:18;18.60;99.50
59893;DHT22;45758;51.052;3.740;2022-09-30T15:03:51;18.70;98.70
59893;DHT22;45758;51.052;3.740;2022-09-30T15:06:25;18.70;98.70
59893;DHT22;45758;51.052;3.740;2022-09-30T15:09:05;18.60;98.90
59893;DHT22;45758;51.052;3.740;2022-09-30T15:11:35;18.60;98.60
59893;DHT22;45758;51.052;3.740;2022-09-30T15:14:17;18.50;98.40
59893;DHT22;45758;51.052;3.740;2022-09-30T15:16:56;18.40;98.60
59893;DHT22;45758;51.052;3.740;2022-09-30T15:19:27;18.40;98.40
59893;DHT22;45758;51.052;3.740;2022-09-30T15:21:56;18.40;98.30
59893;DHT22;45758;51.052;3.740;2022-09-30T15:24:28;18.30;99.00
59893;DHT22;45758;51.052;3.740;2022-09-30T15:26:59;18.20;99.60
59893;DHT22;45758;51.052;3.740;2022-09-30T15:29:25;18.20;99.80
59893;DHT22;45758;51.052;3.740;2022-09-30T15:32:13;18.30;99.90
59893;DHT22;45758;51.052;3.740;2022-09-30T15:35:12;18.30;99.90
59893;DHT22;45758;51.052;3.740;2022-09-30T15:37:43;18.30;99.90
59893;DHT22;45758;51.052;3.740;2022-09-30T15:40:14;18.20;99.60
59893;DHT22;45758;51.052;3.740;2022-09-30T15:43:05;18.10;99.70
59893;DHT22;45758;51.052;3.740;2022-09-30T15:45:35;18.10;99.80
59893;DHT22;45758;51.052;3.740;2022-09-30T15:52:12;17.90;99.90
59893;DHT22;45758;51.052;3.740;2022-09-30T15:55:30;17.90;99.90
59893;DHT22;45758;51.052;3.740;2022-09-30T15:58:38;17.80;99.90
59893;DHT22;45758;51.052;3.740;2022-09-30T16:01:57;17.70;99.90
59893;DHT22;45758;51.052;3.740;2022-09-30T16:08:07;17.70;99.90
59893;DHT22;45758;51.052;3.740;2022-09-30T16:10:35;17.70;99.90
59893;DHT22;45758;51.052;3.740;2022-09-30T16:13:03;17.80;99.90
59893;DHT22;45758;51.052;3.740;2022-09-30T16:15:36;17.80;99.90
59893;DHT22;45758;51.052;3.740;2022-09-30T16:18:04;17.70;99.90
59893;DHT22;45758;51.052;3.740;2022-09-30T16:20:33;17.80;99.90
59893;DHT22;45758;51.052;3.740;2022-09-30T16:23:37;17.80;99.90
59893;DHT22;45758;51.052;3.740;2022-09-30T16:26:21;17.70;99.90
59893;DHT22;45758;51.052;3.740;2022-09-30T16:28:53;17.70;99.90
59893;DHT22;45758;51.052;3.740;2022-09-30T16:35:03;17.60;99.90
59893;DHT22;45758;51.052;3.740;2022-09-30T16:41:01;17.50;99.90
59893;DHT22;45758;51.052;3.740;2022-09-30T16:47:00;17.50;99.90
59893;DHT22;45758;51.052;3.740;2022-09-30T16:53:03;17.50;99.90
59893;DHT22;45758;51.052;3.740;2022-09-30T16:55:50;17.40;99.90
59893;DHT22;45758;51.052;3.740;2022-09-30T17:02:08;17.20;99.90
59893;DHT22;45758;51.052;3.740;2022-09-30T17:08:21;16.90;99.90
59893;DHT22;45758;51.052;3.740;2022-09-30T17:11:20;16.90;99.90
59893;DHT22;45758;51.052;3.740;2022-09-30T17:14:11;16.90;99.90
59893;DHT22;45758;51.052;3.740;2022-09-30T17:17:07;16.90;99.90
59893;DHT22;45758;51.052;3.740;2022-09-30T17:20:12;16.80;99.90
59893;DHT22;45758;51.052;3.740;2022-09-30T17:22:48;16.80;99.90
59893;DHT22;45758;51.052;3.740;2022-09-30T17:25:23;16.80;99.90
59893;DHT22;45758;51.052;3.740;2022-09-30T17:41:06;16.50;99.90
59893;DHT22;45758;51.052;3.740;2022-09-30T17:44:22;16.50;99.90
59893;DHT22;45758;51.052;3.740;2022-09-30T17:54:32;16.40;99.90
59893;DHT22;45758;51.052;3.740;2022-09-30T17:57:09;16.40;99.90
59893;DHT22;45758;51.052;3.740;2022-09-30T18:00:00;16.40;99.90
59893;DHT22;45758;51.052;3.740;2022-09-30T18:02:58;16.40;99.90
59893;DHT22;45758;51.052;3.740;2022-09-30T18:05:56;16.40;99.90
59893;DHT22;45758;51.052;3.740;2022-09-30T18:12:36;16.40;99.90
59893;DHT22;45758;51.052;3.740;2022-09-30T18:39:56;16.10;99.90
59893;DHT22;45758;51.052;3.740;2022-09-30T18:56:09;16.10;99.90
59893;DHT22;45758;51.052;3.740;2022-09-30T18:59:24;16.10;99.90
59893;DHT22;45758;51.052;3.740;2022-09-30T19:02:02;16.10;99.90
59893;DHT22;45758;51.052;3.740;2022-09-30T19:07:54;16.00;99.90
59893;DHT22;45758;51.052;3.740;2022-09-30T19:10:31;16.00;99.90
59893;DHT22;45758;51.052;3.740;2022-09-30T19:13:00;16.00;99.90
59893;DHT22;45758;51.052;3.740;2022-09-30T19:15:32;16.10;99.90
59893;DHT22;45758;51.052;3.740;2022-09-30T19:17:58;16.00;99.90
59893;DHT22;45758;51.052;3.740;2022-09-30T19:20:24;15.90;99.90
59893;DHT22;45758;51.052;3.740;2022-09-30T19:22:50;15.90;99.90
59893;DHT22;45758;51.052;3.740;2022-09-30T19:25:17;16.00;99.90
59893;DHT22;45758;51.052;3.740;2022-09-30T19:27:43;15.90;99.90
59893;DHT22;45758;51.052;3.740;2022-09-30T19:30:12;15.90;99.90
59893;DHT22;45758;51.052;3.740;2022-09-30T19:32:38;15.90;99.90
59893;DHT22;45758;51.052;3.740;2022-09-30T19:35:09;16.00;99.90
59893;DHT22;45758;51.052;3.740;2022-09-30T19:37:37;16.00;99.90
59893;DHT22;45758;51.052;3.740;2022-09-30T19:40:08;15.90;99.90
59893;DHT22;45758;51.052;3.740;2022-09-30T19:42:34;15.90;99.90
59893;DHT22;45758;51.052;3.740;2022-09-30T19:45:05;15.90;99.90
59893;DHT22;45758;51.052;3.740;2022-09-30T19:47:31;15.90;99.90
59893;DHT22;45758;51.052;3.740;2022-09-30T19:49:57;15.90;99.90
59893;DHT22;45758;51.052;3.740;2022-09-30T19:52:28;15.80;99.90
59893;DHT22;45758;51.052;3.740;2022-09-30T19:54:54;15.90;99.90
59893;DHT22;45758;51.052;3.740;2022-09-30T19:57:20;15.80;99.90
59893;DHT22;45758;51.052;3.740;2022-09-30T19:59:47;15.80;99.90
59893;DHT22;45758;51.052;3.740;2022-09-30T20:02:13;15.80;99.90
59893;DHT22;45758;51.052;3.740;2022-09-30T20:04:39;15.80;99.90
59893;DHT22;45758;51.052;3.740;2022-09-30T20:07:07;15.70;99.90
59893;DHT22;45758;51.052;3.740;2022-09-30T20:09:34;15.70;99.90
59893;DHT22;45758;51.052;3.740;2022-09-30T20:12:00;15.50;99.90
59893;DHT22;45758;51.052;3.740;2022-09-30T20:14:34;15.30;99.90
59893;DHT22;45758;51.052;3.740;2022-09-30T20:17:18;15.30;99.90
59893;DHT22;45758;51.052;3.740;2022-09-30T20:19:47;15.20;99.90
59893;DHT22;45758;51.052;3.740;2022-09-30T20:22:33;15.20;99.90
59893;DHT22;45758;51.052;3.740;2022-09-30T20:25:02;14.90;99.90
59893;DHT22;45758;51.052;3.740;2022-09-30T20:27:28;14.80;99.90
59893;DHT22;45758;51.052;3.740;2022-09-30T20:30:00;14.60;99.90
59893;DHT22;45758;51.052;3.740;2022-09-30T20:32:29;14.60;99.90
59893;DHT22;45758;51.052;3.740;2022-09-30T20:34:55;14.50;99.90
59893;DHT22;45758;51.052;3.740;2022-09-30T20:37:22;14.50;99.90
59893;DHT22;45758;51.052;3.740;2022-09-30T20:39:48;14.40;99.90
59893;DHT22;45758;51.052;3.740;2022-09-30T20:42:14;14.40;99.90
59893;DHT22;45758;51.052;3.740;2022-09-30T20:44:40;14.20;99.90
59893;DHT22;45758;51.052;3.740;2022-09-30T20:47:08;14.20;99.90
59893;DHT22;45758;51.052;3.740;2022-09-30T20:49:36;13.90;99.90
59893;DHT22;45758;51.052;3.740;2022-09-30T20:52:02;13.90;99.90
59893;DHT22;45758;51.052;3.740;2022-09-30T20:54:28;13.80;99.90